createdAt,value
2023-02-03T00:00:34.106Z,102140.38
2023-02-03T00:03:02.847Z,102139.34
2023-02-03T00:05:32.776Z,102140.19
2023-02-03T00:08:04.969Z,102147.34
2023-02-03T00:10:34.973Z,102156.97
2023-02-03T00:13:03.908Z,102158.91
2023-02-03T00:15:32.237Z,102160.69
2023-02-03T00:18:00.741Z,102161.53
2023-02-03T00:20:29.876Z,102160.53
2023-02-03T00:23:06.928Z,102151.69
2023-02-03T00:25:36.254Z,102147.59
2023-02-03T00:28:06.797Z,102153.63
2023-02-03T00:30:37.586Z,102166.75
2023-02-03T00:33:06.412Z,102186.75
2023-02-03T00:35:35.006Z,102165.72
2023-02-03T00:38:03.404Z,102178.84
2023-02-03T00:40:33.488Z,102168.28
2023-02-03T00:43:02.125Z,102160.47
2023-02-03T00:45:30.681Z,102170.06
2023-02-03T00:47:59.197Z,102179.41
2023-02-03T00:50:28.838Z,102171.41
2023-02-03T00:52:57.595Z,102144.97
2023-02-03T00:55:26.116Z,102168.00
2023-02-03T00:57:55.832Z,102174.28
2023-02-03T01:00:25.052Z,102173.34
2023-02-03T01:02:53.881Z,102185.00
2023-02-03T01:05:22.397Z,102163.09
2023-02-03T01:07:50.923Z,102187.69
2023-02-03T01:10:19.629Z,102194.03
2023-02-03T01:12:47.856Z,102193.41
2023-02-03T01:15:19.356Z,102186.53
2023-02-03T01:17:47.725Z,102193.59
2023-02-03T01:20:17.275Z,102204.97
2023-02-03T01:22:46.668Z,102192.66
2023-02-03T01:25:15.230Z,102196.06
2023-02-03T01:27:43.941Z,102226.00
2023-02-03T01:30:14.109Z,102200.38
2023-02-03T01:32:44.141Z,102213.75
2023-02-03T01:35:12.671Z,102204.97
2023-02-03T01:37:42.057Z,102212.31
2023-02-03T01:40:11.985Z,102214.31
2023-02-03T01:42:40.517Z,102222.38
2023-02-03T01:45:13.463Z,102224.16
2023-02-03T01:47:48.691Z,102234.91
2023-02-03T01:50:20.619Z,102245.63
2023-02-03T01:52:52.976Z,102255.16
2023-02-03T01:55:24.218Z,102257.06
2023-02-03T01:57:57.776Z,102250.03
2023-02-03T02:00:26.988Z,102251.03
2023-02-03T02:03:01.184Z,102264.22
2023-02-03T02:05:34.570Z,102254.59
2023-02-03T02:08:05.397Z,102280.97
2023-02-03T02:10:35.247Z,102262.63
2023-02-03T02:13:06.108Z,102269.63
2023-02-03T02:15:45.024Z,102266.13
2023-02-03T02:18:28.897Z,102267.91
2023-02-03T02:21:32.085Z,102276.97
2023-02-03T02:25:01.452Z,102281.38
2023-02-03T02:28:05.959Z,102280.53
2023-02-03T02:31:08.108Z,102284.16
2023-02-03T02:33:45.233Z,102277.94
2023-02-03T02:36:27.131Z,102283.22
2023-02-03T02:39:02.235Z,102283.38
2023-02-03T02:41:41.395Z,102278.03
2023-02-03T02:44:16.907Z,102277.16
2023-02-03T02:46:48.930Z,102272.81
2023-02-03T02:49:25.044Z,102273.53
2023-02-03T02:51:55.583Z,102291.13
2023-02-03T02:54:29.435Z,102296.38
2023-02-03T02:57:04.349Z,102319.34
2023-02-03T02:59:35.252Z,102304.31
2023-02-03T03:02:04.241Z,102308.69
2023-02-03T03:04:36.826Z,102309.44
2023-02-03T03:07:09.141Z,102296.06
2023-02-03T03:09:43.121Z,102305.66
2023-02-03T03:12:14.858Z,102305.75
2023-02-03T03:14:47.538Z,102298.63
2023-02-03T03:17:23.285Z,102313.59
2023-02-03T03:19:57.386Z,102305.63
2023-02-03T03:22:33.856Z,102314.22
2023-02-03T03:25:08.463Z,102299.34
2023-02-03T03:27:42.695Z,102311.38
2023-02-03T03:30:17.133Z,102302.63
2023-02-03T03:32:46.317Z,102301.56
2023-02-03T03:35:16.884Z,102308.41
2023-02-03T03:37:49.655Z,102306.06
2023-02-03T03:40:24.467Z,102312.19
2023-02-03T03:42:59.846Z,102314.81
2023-02-03T03:45:34.155Z,102316.44
2023-02-03T03:48:08.641Z,102310.31
2023-02-03T03:50:42.532Z,102314.75
2023-02-03T03:53:14.056Z,102311.97
2023-02-03T03:55:48.975Z,102313.81
2023-02-03T03:58:21.178Z,102322.56
2023-02-03T04:00:51.148Z,102316.44
2023-02-03T04:03:24.812Z,102320.81
2023-02-03T04:05:54.866Z,102318.19
2023-02-03T04:08:23.567Z,102317.38
2023-02-03T04:10:52.147Z,102318.81
2023-02-03T04:13:21.014Z,102314.63
2023-02-03T04:15:49.695Z,102319.03
2023-02-03T04:18:19.900Z,102313.75
2023-02-03T04:20:48.459Z,102317.47
2023-02-03T04:23:18.726Z,102326.16
2023-02-03T04:25:47.248Z,102319.16
2023-02-03T04:28:15.996Z,102316.53
2023-02-03T04:30:44.672Z,102309.56
2023-02-03T04:33:14.275Z,102306.06
2023-02-03T04:35:43.055Z,102312.19
2023-02-03T04:38:11.653Z,102299.94
2023-02-03T04:40:43.147Z,102307.84
2023-02-03T04:43:11.681Z,102304.13
2023-02-03T04:45:40.326Z,102296.28
2023-02-03T04:48:09.399Z,102303.34
2023-02-03T04:50:38.474Z,102289.38
2023-02-03T04:53:07.879Z,102308.75
2023-02-03T04:55:36.380Z,102297.28
2023-02-03T04:58:06.353Z,102291.84
2023-02-03T05:00:35.114Z,102287.53
2023-02-03T05:03:03.608Z,102299.00
2023-02-03T05:05:32.294Z,102288.44
2023-02-03T05:08:00.936Z,102285.94
2023-02-03T05:10:29.687Z,102288.50
2023-02-03T05:12:58.515Z,102299.94
2023-02-03T05:15:28.482Z,102308.75
2023-02-03T05:17:57.336Z,102299.13
2023-02-03T05:20:26.460Z,102297.28
2023-02-03T05:22:55.192Z,102306.84
2023-02-03T05:25:24.095Z,102326.00
2023-02-03T05:27:52.665Z,102305.97
2023-02-03T05:30:21.387Z,102306.06
2023-02-03T05:32:52.621Z,102313.16
2023-02-03T05:35:20.961Z,102317.59
2023-02-03T05:37:49.449Z,102330.84
2023-02-03T05:40:36.717Z,102321.16
2023-02-03T05:43:05.275Z,102331.06
2023-02-03T05:45:33.915Z,102336.34
2023-02-03T05:48:04.348Z,102340.78
2023-02-03T05:50:33.826Z,102347.72
2023-02-03T05:53:03.266Z,102353.94
2023-02-03T05:55:33.251Z,102353.97
2023-02-03T05:58:02.535Z,102366.31
2023-02-03T06:00:32.103Z,102362.09
2023-02-03T06:03:02.655Z,102366.50
2023-02-03T06:05:38.087Z,102371.00
2023-02-03T06:08:06.955Z,102374.44
2023-02-03T06:10:35.931Z,102384.00
2023-02-03T06:13:11.063Z,102377.13
2023-02-03T06:15:40.182Z,102384.97
2023-02-03T06:18:09.011Z,102389.31
2023-02-03T06:20:39.278Z,102408.56
2023-02-03T06:23:08.829Z,102391.94
2023-02-03T06:25:37.639Z,102398.97
2023-02-03T06:28:07.451Z,102395.47
2023-02-03T06:30:37.533Z,102395.50
2023-02-03T06:33:06.447Z,102388.63
2023-02-03T06:35:35.179Z,102395.50
2023-02-03T06:38:05.264Z,102398.22
2023-02-03T06:40:33.810Z,102408.84
2023-02-03T06:43:02.215Z,102419.41
2023-02-03T06:45:32.001Z,102421.09
2023-02-03T06:48:00.602Z,102416.69
2023-02-03T06:50:30.383Z,102432.56
2023-02-03T06:52:59.611Z,102471.19
2023-02-03T06:55:29.787Z,102442.19
2023-02-03T06:57:59.623Z,102440.47
2023-02-03T07:00:28.527Z,102447.47
2023-02-03T07:02:58.095Z,102453.72
2023-02-03T07:05:28.185Z,102456.41
2023-02-03T07:07:57.792Z,102450.22
2023-02-03T07:10:26.747Z,102449.44
2023-02-03T07:12:57.079Z,102447.66
2023-02-03T07:15:26.659Z,102443.34
2023-02-03T07:17:55.475Z,102443.44
2023-02-03T07:20:25.324Z,102474.13
2023-02-03T07:22:56.130Z,102449.56
2023-02-03T07:25:25.826Z,102448.63
2023-02-03T07:27:55.099Z,102447.78
2023-02-03T07:30:25.385Z,102442.59
2023-02-03T07:32:55.519Z,102454.06
2023-02-03T07:35:25.699Z,102451.28
2023-02-03T07:37:55.482Z,102443.34
2023-02-03T07:40:24.220Z,102453.13
2023-02-03T07:42:58.006Z,102455.88
2023-02-03T07:45:27.713Z,102470.00
2023-02-03T07:47:56.419Z,102467.44
2023-02-03T07:50:27.164Z,102471.78
2023-02-03T07:52:56.548Z,102490.34
2023-02-03T07:55:25.302Z,102485.13
2023-02-03T07:57:55.325Z,102500.09
2023-02-03T08:00:24.445Z,102504.50
2023-02-03T08:02:55.898Z,102508.13
2023-02-03T08:05:25.779Z,102517.69
2023-02-03T08:07:55.458Z,102518.53
2023-02-03T08:10:24.161Z,102518.66
2023-02-03T08:12:55.564Z,102522.97
2023-02-03T08:15:24.751Z,102521.00
2023-02-03T08:17:54.791Z,102526.19
2023-02-03T08:20:23.794Z,102536.66
2023-02-03T08:22:52.652Z,102544.53
2023-02-03T08:25:22.634Z,102552.44
2023-02-03T08:27:51.381Z,102553.28
2023-02-03T08:30:20.436Z,102548.78
2023-02-03T08:32:50.119Z,102543.59
2023-02-03T08:35:21.436Z,102553.09
2023-02-03T08:37:50.002Z,102550.47
2023-02-03T08:40:19.194Z,102560.00
2023-02-03T08:42:48.093Z,102558.97
2023-02-03T08:45:16.467Z,102578.94
2023-02-03T08:47:44.956Z,102576.84
2023-02-03T08:50:14.613Z,102590.88
2023-02-03T08:52:44.551Z,102565.19
2023-02-03T08:55:13.481Z,102551.88
2023-02-03T08:57:42.440Z,102560.66
2023-02-03T09:00:12.682Z,102540.50
2023-02-03T09:02:41.423Z,102565.88
2023-02-03T09:05:11.008Z,102550.91
2023-02-03T09:07:39.714Z,102537.66
2023-02-03T09:10:10.959Z,102544.72
2023-02-03T09:12:39.576Z,102562.44
2023-02-03T09:15:09.016Z,102550.97
2023-02-03T09:17:37.545Z,102564.09
2023-02-03T09:20:07.275Z,102562.19
2023-02-03T09:22:36.180Z,102550.72
2023-02-03T09:25:04.752Z,102566.28
2023-02-03T09:27:34.902Z,102557.59
2023-02-03T09:30:03.908Z,102566.28
2023-02-03T09:32:34.179Z,102576.06
2023-02-03T09:35:03.094Z,102574.19
2023-02-03T09:37:32.198Z,102584.69
2023-02-03T09:40:00.573Z,102582.78
2023-02-03T09:42:57.669Z,102579.16
2023-02-03T09:45:30.874Z,102572.03
2023-02-03T09:48:07.913Z,102584.28
2023-02-03T09:50:39.955Z,102584.16
2023-02-03T09:53:18.829Z,102578.16
2023-02-03T09:55:48.880Z,102578.16
2023-02-03T09:58:23.282Z,102582.47
2023-02-03T10:00:55.848Z,102580.59
2023-02-03T10:03:33.418Z,102579.34
2023-02-03T10:06:14.516Z,102575.59
2023-02-03T10:09:03.918Z,102567.66
2023-02-03T10:11:50.045Z,102574.19
2023-02-03T10:14:37.215Z,102572.88
2023-02-03T10:17:21.060Z,102558.47
2023-02-03T10:19:55.520Z,102561.59
2023-02-03T10:22:28.760Z,102560.56
2023-02-03T10:25:02.786Z,102561.53
2023-02-03T10:27:33.656Z,102559.63
2023-02-03T10:30:12.683Z,102563.91
2023-02-03T10:32:41.678Z,102566.38
2023-02-03T10:35:14.747Z,102556.53
2023-02-03T10:37:46.729Z,102559.19
2023-02-03T10:40:17.280Z,102552.97
2023-02-03T10:43:06.790Z,102548.63
2023-02-03T10:45:40.331Z,102550.91
2023-02-03T10:48:17.400Z,102552.41
2023-02-03T10:50:51.729Z,102552.31
2023-02-03T10:53:26.865Z,102567.06
2023-02-03T10:56:05.053Z,102569.41
2023-02-03T10:58:34.747Z,102565.38
2023-02-03T11:01:12.498Z,102578.38
2023-02-03T11:03:43.964Z,102579.63
2023-02-03T11:06:14.571Z,102564.78
2023-02-03T11:08:45.308Z,102572.00
2023-02-03T11:11:17.307Z,102556.69
2023-02-03T11:13:46.041Z,102562.16
2023-02-03T11:16:20.532Z,102570.34
2023-02-03T11:18:53.425Z,102576.31
2023-02-03T11:21:24.710Z,102548.41
2023-02-03T11:24:06.752Z,102565.75
2023-02-03T11:26:38.548Z,102592.22
2023-02-03T11:29:08.740Z,102559.84
2023-02-03T11:31:39.162Z,102569.97
2023-02-03T11:34:17.043Z,102562.44
2023-02-03T11:36:45.684Z,102578.69
2023-02-03T11:39:28.957Z,102575.88
2023-02-03T11:41:58.297Z,102584.69
2023-02-03T11:44:31.739Z,102591.06
2023-02-03T11:47:05.657Z,102573.13
2023-02-03T11:50:02.698Z,102610.25
2023-02-03T11:52:52.667Z,102589.66
2023-02-03T11:55:45.868Z,102594.31
2023-02-03T11:58:41.551Z,102592.50
2023-02-03T12:01:19.391Z,102592.28
2023-02-03T12:04:19.041Z,102597.75
2023-02-03T12:07:06.102Z,102599.84
2023-02-03T12:09:48.941Z,102589.44
2023-02-03T12:12:33.965Z,102588.66
2023-02-03T12:15:18.843Z,102587.09
2023-02-03T12:18:10.087Z,102592.31
2023-02-03T12:21:01.722Z,102585.81
2023-02-03T12:23:43.928Z,102571.34
2023-02-03T12:26:22.419Z,102566.34
2023-02-03T12:29:00.778Z,102552.03
2023-02-03T12:31:37.109Z,102566.00
2023-02-03T12:34:15.071Z,102567.94
2023-02-03T12:36:53.684Z,102570.50
2023-02-03T12:39:31.090Z,102584.59
2023-02-03T12:42:05.645Z,102587.59
2023-02-03T12:44:41.916Z,102568.19
2023-02-03T12:47:17.241Z,102558.13
2023-02-03T12:49:52.893Z,102555.28
2023-02-03T12:52:30.013Z,102564.41
2023-02-03T12:55:10.323Z,102569.63
2023-02-03T12:57:45.718Z,102572.19
2023-02-03T13:00:29.411Z,102563.34
2023-02-03T13:03:10.773Z,102561.38
2023-02-03T13:05:45.071Z,102567.03
2023-02-03T13:08:24.597Z,102574.72
2023-02-03T13:10:58.148Z,102563.19
2023-02-03T13:13:34.860Z,102575.56
2023-02-03T13:16:09.775Z,102573.28
2023-02-03T13:18:41.918Z,102574.75
2023-02-03T13:21:12.603Z,102570.34
2023-02-03T13:23:48.500Z,102566.84
2023-02-03T13:26:49.084Z,102574.38
2023-02-03T13:29:45.749Z,102570.97
2023-02-03T13:32:31.138Z,102578.22
2023-02-03T13:35:33.530Z,102565.41
2023-02-03T13:38:35.602Z,102572.41
2023-02-03T13:41:13.118Z,102574.97
2023-02-03T13:43:46.869Z,102581.13
2023-02-03T13:46:24.648Z,102571.97
2023-02-03T13:48:56.095Z,102574.97
2023-02-03T13:51:29.405Z,102566.63
2023-02-03T13:54:03.271Z,102556.78
2023-02-03T13:56:34.398Z,102570.63
2023-02-03T13:59:07.064Z,102561.81
2023-02-03T14:01:40.180Z,102575.88
2023-02-03T14:04:10.359Z,102568.66
2023-02-03T14:07:01.436Z,102571.31
2023-02-03T14:09:47.446Z,102588.06
2023-02-03T14:12:37.089Z,102565.22
2023-02-03T14:15:33.650Z,102567.97
2023-02-03T14:18:33.340Z,102562.97
2023-02-03T14:21:23.639Z,102581.13
2023-02-03T14:24:01.319Z,102562.06
2023-02-03T14:26:39.082Z,102578.06
2023-02-03T14:29:11.288Z,102557.16
2023-02-03T14:31:59.396Z,102564.75
2023-02-03T14:34:37.195Z,102581.75
2023-02-03T14:37:20.020Z,102580.16
2023-02-03T14:40:25.780Z,102578.81
2023-02-03T14:43:24.257Z,102592.38
2023-02-03T14:46:33.038Z,102578.50
2023-02-03T14:49:23.580Z,102608.84
2023-02-03T14:52:14.473Z,102585.22
2023-02-03T14:55:05.235Z,102585.22
2023-02-03T14:57:45.673Z,102579.34
2023-02-03T15:00:33.818Z,102594.66
2023-02-03T15:03:32.049Z,102587.56
2023-02-03T15:06:03.544Z,102581.19
2023-02-03T15:08:42.990Z,102567.41
2023-02-03T15:11:30.477Z,102554.72
2023-02-03T15:14:15.838Z,102550.47
2023-02-03T15:16:46.024Z,102569.94
2023-02-03T15:19:22.511Z,102560.78
2023-02-03T15:21:51.200Z,102578.97
2023-02-03T15:24:24.245Z,102575.38
2023-02-03T15:26:54.945Z,102580.69
2023-02-03T15:29:30.188Z,102586.94
2023-02-03T15:32:14.469Z,102589.59
2023-02-03T15:34:48.089Z,102593.28
2023-02-03T15:37:23.126Z,102590.00
2023-02-03T15:40:01.923Z,102601.56
2023-02-03T15:42:35.965Z,102607.59
2023-02-03T15:45:10.054Z,102608.44
2023-02-03T15:47:44.691Z,102602.38
2023-02-03T15:50:29.035Z,102596.88
2023-02-03T15:53:02.960Z,102587.59
2023-02-03T15:55:38.202Z,102586.13
2023-02-03T15:58:08.441Z,102594.75
2023-02-03T16:00:42.217Z,102594.56
2023-02-03T16:03:21.930Z,102605.13
2023-02-03T16:05:52.620Z,102602.06
2023-02-03T16:08:40.045Z,102608.22
2023-02-03T16:11:29.670Z,102605.47
2023-02-03T16:14:01.649Z,102602.38
2023-02-03T16:16:35.258Z,102606.44
2023-02-03T16:19:06.300Z,102611.25
2023-02-03T16:21:45.025Z,102610.97
2023-02-03T16:24:38.091Z,102616.47
2023-02-03T16:27:34.813Z,102609.03
2023-02-03T16:30:50.736Z,102617.16
2023-02-03T16:33:37.207Z,102618.56
2023-02-03T16:36:30.917Z,102632.88
2023-02-03T16:39:21.814Z,102627.81
2023-02-03T16:42:07.446Z,102620.16
2023-02-03T16:44:54.563Z,102622.91
2023-02-03T16:47:47.825Z,102631.59
2023-02-03T16:50:39.302Z,102628.19
2023-02-03T16:53:15.057Z,102630.06
2023-02-03T16:55:47.164Z,102636.22
2023-02-03T16:58:15.824Z,102629.19
2023-02-03T17:00:47.968Z,102637.19
2023-02-03T17:03:20.933Z,102640.94
2023-02-03T17:05:50.902Z,102634.00
2023-02-03T17:08:23.755Z,102639.34
2023-02-03T17:11:06.405Z,102643.78
2023-02-03T17:13:37.014Z,102643.53
2023-02-03T17:16:12.475Z,102646.38
2023-02-03T17:18:41.869Z,102651.97
2023-02-03T17:21:13.743Z,102657.13
2023-02-03T17:23:43.894Z,102647.00
2023-02-03T17:26:16.196Z,102655.19
2023-02-03T17:28:45.528Z,102660.03
2023-02-03T17:31:16.748Z,102664.59
2023-02-03T17:33:47.613Z,102660.41
2023-02-03T17:36:18.259Z,102673.66
2023-02-03T17:55:25.721Z,102688.66
2023-02-03T17:57:55.774Z,102688.91
2023-02-03T18:00:24.685Z,102695.25
2023-02-03T18:02:53.866Z,102695.16
2023-02-03T18:05:22.520Z,102700.66
2023-02-03T18:07:51.112Z,102699.88
2023-02-03T18:10:20.324Z,102709.69
2023-02-03T18:12:48.914Z,102712.59
2023-02-03T18:15:19.066Z,102713.63
2023-02-03T18:17:47.751Z,102710.13
2023-02-03T18:20:16.597Z,102714.75
2023-02-03T18:22:46.645Z,102718.38
2023-02-03T18:25:17.691Z,102727.41
2023-02-03T18:27:46.330Z,102719.66
2023-02-03T18:30:18.108Z,102713.66
2023-02-03T18:32:52.175Z,102723.41
2023-02-03T18:35:20.834Z,102729.59
2023-02-03T18:37:49.255Z,102732.22
2023-02-03T18:40:18.281Z,102739.34
2023-02-03T18:42:46.972Z,102741.19
2023-02-03T18:45:16.660Z,102745.59
2023-02-03T18:47:45.337Z,102743.03
2023-02-03T18:50:21.263Z,102744.81
2023-02-03T18:52:55.023Z,102749.97
2023-02-03T18:55:24.057Z,102753.41
2023-02-03T18:57:52.555Z,102752.47
2023-02-03T19:00:22.901Z,102754.34
2023-02-03T19:02:53.001Z,102757.81
2023-02-03T19:05:23.099Z,102759.53
2023-02-03T19:07:51.791Z,102766.59
2023-02-03T19:10:20.860Z,102770.19
2023-02-03T19:12:49.515Z,102769.47
2023-02-03T19:15:19.586Z,102769.69
2023-02-03T19:17:48.523Z,102766.34
2023-02-03T19:20:18.419Z,102765.59
2023-02-03T19:22:48.392Z,102765.53
2023-02-03T19:25:22.884Z,102767.25
2023-02-03T19:27:54.615Z,102759.31
2023-02-03T19:30:23.168Z,102759.28
2023-02-03T19:32:51.660Z,102770.69
2023-02-03T19:35:20.639Z,102774.13
2023-02-03T19:37:56.536Z,102773.09
2023-02-03T19:40:26.455Z,102768.72
2023-02-03T19:42:55.960Z,102769.47
2023-02-03T19:45:24.591Z,102768.63
2023-02-03T19:48:05.742Z,102775.63
2023-02-03T19:50:37.812Z,102782.59
2023-02-03T19:53:09.959Z,102776.38
2023-02-03T19:55:38.899Z,102782.50
2023-02-03T19:58:07.542Z,102785.13
2023-02-03T20:00:40.243Z,102786.03
2023-02-03T20:03:12.562Z,102785.84
2023-02-03T20:05:42.401Z,102793.66
2023-02-03T20:08:14.969Z,102793.09
2023-02-03T20:10:45.676Z,102794.00
2023-02-03T20:13:15.920Z,102799.47
2023-02-03T20:15:47.666Z,102797.56
2023-02-03T20:18:28.824Z,102803.63
2023-02-03T20:20:59.839Z,102803.47
2023-02-03T20:23:29.992Z,102809.56
2023-02-03T20:26:00.120Z,102802.50
2023-02-03T20:28:31.798Z,102811.25
2023-02-03T20:31:03.736Z,102800.72
2023-02-03T20:33:33.676Z,102801.69
2023-02-03T20:36:02.278Z,102802.50
2023-02-03T20:38:32.679Z,102803.25
2023-02-03T20:41:01.580Z,102811.88
2023-02-03T20:43:31.992Z,102812.00
2023-02-03T20:46:00.548Z,102806.66
2023-02-03T20:48:28.960Z,102817.16
2023-02-03T20:50:57.454Z,102816.09
2023-02-03T20:53:27.814Z,102823.94
2023-02-03T20:56:01.880Z,102834.38
2023-02-03T20:58:35.667Z,102823.84
2023-02-03T21:01:04.983Z,102826.28
2023-02-03T21:03:50.530Z,102820.06
2023-02-03T21:06:20.768Z,102820.84
2023-02-03T21:08:51.315Z,102827.88
2023-02-03T21:11:31.077Z,102827.91
2023-02-03T21:13:59.818Z,102838.44
2023-02-03T21:16:36.796Z,102848.56
2023-02-03T21:19:05.843Z,102850.47
2023-02-03T21:21:38.233Z,102861.84
2023-02-03T21:24:25.062Z,102856.47
2023-02-03T21:26:56.214Z,102859.97
2023-02-03T21:29:27.425Z,102861.94
2023-02-03T21:31:57.501Z,102859.41
2023-02-03T21:34:29.829Z,102863.94
2023-02-03T21:36:59.175Z,102859.56
2023-02-03T21:39:30.239Z,102860.41
2023-02-03T21:42:18.839Z,102865.88
2023-02-03T21:44:47.827Z,102879.91
2023-02-03T21:47:19.645Z,102880.09
2023-02-03T21:49:49.149Z,102873.78
2023-02-03T21:52:18.073Z,102876.53
2023-02-03T21:54:48.886Z,102885.22
2023-02-03T21:57:20.576Z,102877.47
2023-02-03T21:59:50.001Z,102870.50
2023-02-03T22:02:43.476Z,102885.59
2023-02-03T22:05:16.919Z,102889.03
2023-02-03T22:07:47.808Z,102884.72
2023-02-03T22:10:16.648Z,102893.75
2023-02-03T22:12:46.952Z,102887.53
2023-02-03T22:15:16.570Z,102886.69
2023-02-03T22:17:48.463Z,102889.28
2023-02-03T22:20:17.195Z,102896.47
2023-02-03T22:22:45.752Z,102887.38
2023-02-03T22:25:17.723Z,102894.75
2023-02-03T22:27:48.013Z,102902.81
2023-02-03T22:30:18.584Z,102900.28
2023-02-03T22:32:50.314Z,102907.22
2023-02-03T22:35:20.040Z,102910.78
2023-02-03T22:37:50.491Z,102908.31
2023-02-03T22:40:19.730Z,102895.09
2023-02-03T22:42:50.821Z,102911.81
2023-02-03T22:45:22.123Z,102906.59
2023-02-03T22:47:51.053Z,102917.16
2023-02-03T22:50:27.079Z,102917.22
2023-02-03T22:53:04.493Z,102916.34
2023-02-03T22:55:33.417Z,102917.53
2023-02-03T22:58:04.494Z,102913.13
2023-02-03T23:00:34.068Z,102918.50
2023-02-03T23:03:04.615Z,102923.53
2023-02-03T23:05:33.222Z,102926.53
2023-02-03T23:08:02.102Z,102924.59
2023-02-03T23:10:33.171Z,102938.13
2023-02-03T23:13:11.031Z,102921.69
2023-02-03T23:15:41.257Z,102934.88
2023-02-03T23:18:09.957Z,102930.53
2023-02-03T23:20:39.351Z,102924.50
2023-02-03T23:23:10.682Z,102935.03
2023-02-03T23:25:42.616Z,102939.56
2023-02-03T23:28:13.472Z,102933.50
2023-02-03T23:30:43.629Z,102934.50
2023-02-03T23:33:13.188Z,102931.75
2023-02-03T23:35:46.572Z,102926.75
2023-02-03T23:38:17.768Z,102927.72
2023-02-03T23:40:47.995Z,102923.34
2023-02-03T23:43:19.071Z,102923.41
2023-02-03T23:45:47.826Z,102926.06
2023-02-03T23:48:17.985Z,102925.13
2023-02-03T23:50:46.574Z,102927.72
2023-02-03T23:53:15.241Z,102932.03
2023-02-03T23:55:44.725Z,102934.69
2023-02-03T23:58:13.326Z,102932.03
